Time;durP1;ratioP1;P1;durP2;ratioP2;P2;SDS_P1;SDS_P2;PMS_P1;PMS_P2;Temp;Humidity;BMP_temperature;BMP_pressure;BME280_temperature;BME280_humidity;BME280_pressure;Samples;Min_cycle;Max_cycle;Signal;HPM_P1;HPM_P2
2021/01/26 00:03:05;;;;;;;20.62;14.45;;;;;;;3.33;81.39;99391.70;2984937;79;21152;-63
2021/01/26 00:07:09;;;;;;;27.80;14.73;;;;;;;3.42;81.24;99389.79;2985143;79;21145;-62
2021/01/26 00:11:13;;;;;;;22.55;15.43;;;;;;;3.45;80.92;99401.41;2984778;79;21181;-63
2021/01/26 00:15:18;;;;;;;28.75;18.70;;;;;;;3.39;80.72;99391.31;2984676;79;21610;-63
2021/01/26 00:19:25;;;;;;;22.73;18.67;;;;;;;3.33;80.86;99385.13;2984933;79;21105;-62
2021/01/26 00:23:30;;;;;;;24.47;15.88;;;;;;;3.27;81.26;99392.97;2984659;78;21109;-63
2021/01/26 00:27:34;;;;;;;28.52;16.35;;;;;;;3.19;81.70;99385.59;2984793;79;21113;-63
2021/01/26 00:31:36;;;;;;;30.02;19.45;;;;;;;3.13;81.88;99388.59;2984838;79;21593;-63
2021/01/26 00:35:43;;;;;;;19.53;16.73;;;;;;;3.11;81.96;99399.68;2984890;79;22219;-63
2021/01/26 00:39:46;;;;;;;32.08;19.52;;;;;;;3.09;81.96;99393.23;2984925;79;21296;-61
2021/01/26 00:43:51;;;;;;;29.75;18.62;;;;;;;3.11;81.97;99399.68;2984819;79;21133;-62
2021/01/26 00:47:53;;;;;;;29.02;19.37;;;;;;;3.09;81.85;99401.11;2984986;79;21131;-63
2021/01/26 00:52:00;;;;;;;28.05;15.45;;;;;;;3.05;81.72;99406.20;2992821;79;21164;-62
2021/01/26 00:56:06;;;;;;;24.80;16.97;;;;;;;2.94;82.06;99412.12;3002987;79;21125;-63
2021/01/26 01:00:16;;;;;;;23.38;14.10;;;;;;;2.95;82.35;99413.84;3002895;79;21115;-63
2021/01/26 01:04:20;;;;;;;30.77;17.73;;;;;;;2.91;82.51;99414.95;3001600;79;21145;-63
2021/01/26 01:08:29;;;;;;;28.05;17.42;;;;;;;2.90;82.84;99413.75;3003031;78;21160;-62
2021/01/26 01:12:35;;;;;;;30.15;18.90;;;;;;;2.89;83.13;99412.89;3002479;79;21128;-64
2021/01/26 01:16:39;;;;;;;36.77;22.42;;;;;;;2.89;83.23;99426.03;3002855;79;21148;-62
2021/01/26 01:20:43;;;;;;;27.33;18.07;;;;;;;2.87;83.64;99420.52;3003072;79;21097;-61
2021/01/26 01:24:47;;;;;;;34.80;21.37;;;;;;;2.87;83.64;99420.52;3002490;79;21421;-62
2021/01/26 01:28:49;;;;;;;30.43;19.90;;;;;;;2.88;84.14;99419.58;3003033;79;21104;-63
2021/01/26 01:32:53;;;;;;;30.80;22.30;;;;;;;2.85;84.65;99423.23;3002923;79;21108;-64
2021/01/26 01:36:56;;;;;;;30.05;23.05;;;;;;;2.84;84.80;99427.63;3002680;79;21077;-62
2021/01/26 01:40:59;;;;;;;36.25;22.42;;;;;;;2.90;84.73;99423.77;3039925;77;21140;-62
2021/01/26 01:45:05;;;;;;;38.90;25.43;;;;;;;2.98;84.59;99434.65;3050219;77;21162;-63
2021/01/26 01:49:14;;;;;;;27.02;19.62;;;;;;;2.98;84.47;99436.42;3004100;77;21154;-62
2021/01/26 01:53:45;;;;;;;36.40;21.77;;;;;;;2.92;84.01;99422.37;2884393;82;21141;-63
2021/01/26 01:58:22;;;;;;;36.60;21.12;;;;;;;2.83;83.82;99429.87;2892180;81;21134;-63
2021/01/26 02:02:27;;;;;;;26.33;17.42;;;;;;;2.75;83.61;99426.05;2975594;79;21146;-61
2021/01/26 02:06:34;;;;;;;26.45;19.92;;;;;;;2.68;83.15;99434.33;2841333;82;21640;-63
2021/01/26 02:10:37;;;;;;;26.00;18.30;;;;;;;2.61;82.55;99433.48;2862348;82;21127;-61
2021/01/26 02:14:44;;;;;;;22.77;14.98;;;;;;;2.55;82.38;99432.08;2815628;83;21177;-62
2021/01/26 02:19:13;;;;;;;19.73;16.77;;;;;;;2.47;82.26;99429.96;2815354;83;21145;-63
2021/01/26 02:23:31;;;;;;;30.05;17.35;;;;;;;2.46;82.22;99433.98;2815402;83;21138;-61
2021/01/26 02:27:54;;;;;;;31.00;18.23;;;;;;;2.44;82.42;99436.69;2799587;84;21150;-61
2021/01/26 02:32:25;;;;;;;29.02;19.60;;;;;;;2.45;82.68;99437.55;2812492;84;21156;-63
2021/01/26 02:36:54;;;;;;;29.00;17.67;;;;;;;2.53;82.61;99441.39;2814857;83;21172;-61
2021/01/26 02:41:30;;;;;;;28.47;18.73;;;;;;;2.56;82.21;99439.05;2833531;82;21618;-62
2021/01/26 02:45:42;;;;;;;33.50;22.65;;;;;;;2.60;82.15;99439.68;2870804;82;21176;-63
2021/01/26 02:49:54;;;;;;;34.98;19.15;;;;;;;2.64;81.97;99446.42;2949433;80;21190;-62
2021/01/26 02:54:35;;;;;;;28.77;16.25;;;;;;;2.69;81.93;99458.33;2928456;81;21137;-61
2021/01/26 02:58:46;;;;;;;28.55;20.20;;;;;;;2.77;82.03;99459.66;2956142;80;21142;-62
2021/01/26 03:03:07;;;;;;;29.72;19.27;;;;;;;2.83;81.80;99461.40;2935639;80;21156;-61
2021/01/26 03:07:12;;;;;;;28.05;19.05;;;;;;;2.91;81.90;99464.86;2958109;79;21683;-63
2021/01/26 03:11:26;;;;;;;37.20;20.97;;;;;;;2.98;81.56;99478.45;2973300;79;21130;-62
2021/01/26 03:15:35;;;;;;;34.30;19.73;;;;;;;3.05;81.58;99482.86;2860956;83;21140;-62
2021/01/26 03:19:40;;;;;;;29.48;21.40;;;;;;;3.08;81.33;99466.89;2860800;83;21136;-62
2021/01/26 03:23:48;;;;;;;27.63;19.33;;;;;;;3.14;81.18;99471.75;2840579;83;21152;-62
2021/01/26 03:27:56;;;;;;;31.00;21.50;;;;;;;3.18;81.04;99479.83;2859557;83;21350;-62
2021/01/26 03:32:03;;;;;;;31.12;23.45;;;;;;;3.24;81.10;99483.37;2875132;82;21150;-62
2021/01/26 03:36:06;;;;;;;29.95;18.62;;;;;;;3.32;81.13;99489.45;2973077;80;21094;-63
2021/01/26 03:40:13;;;;;;;36.50;23.65;;;;;;;3.36;80.92;99490.11;2973063;80;21142;-62
2021/01/26 03:44:16;;;;;;;34.30;22.02;;;;;;;3.38;80.69;99498.73;2973573;79;21639;-62
2021/01/26 03:48:46;;;;;;;35.92;23.77;;;;;;;3.40;80.70;99500.80;2860982;83;21128;-62
2021/01/26 03:53:09;;;;;;;31.25;20.25;;;;;;;3.45;80.69;99505.27;2878310;81;21079;-63
2021/01/26 03:57:33;;;;;;;39.48;21.57;;;;;;;3.48;80.55;99503.75;3041044;77;21149;-63
2021/01/26 04:02:13;;;;;;;34.43;23.77;;;;;;;3.51;80.57;99500.09;2937842;80;21135;-63
2021/01/26 04:06:30;;;;;;;32.17;23.18;;;;;;;3.54;80.45;99509.95;3046389;77;21137;-62
2021/01/26 04:10:37;;;;;;;33.10;20.82;;;;;;;3.52;80.65;99503.92;3009617;77;21138;-61
2021/01/26 04:14:47;;;;;;;31.07;18.32;;;;;;;3.49;81.03;99510.70;3012680;77;21614;-62
2021/01/26 04:18:52;;;;;;;24.37;17.80;;;;;;;3.46;81.42;99510.91;3009635;77;21106;-67
2021/01/26 04:23:00;;;;;;;28.55;19.57;;;;;;;3.38;81.72;99510.56;2938436;81;21119;-66
2021/01/26 04:27:09;;;;;;;29.05;18.45;;;;;;;3.31;81.77;99512.74;3057458;77;21140;-66
2021/01/26 04:31:15;;;;;;;39.18;21.68;;;;;;;3.23;81.89;99512.38;3056513;77;21141;-66
2021/01/26 04:35:19;;;;;;;40.00;23.65;;;;;;;3.17;81.94;99506.20;3062487;77;21153;-67
2021/01/26 04:39:22;;;;;;;33.75;22.45;;;;;;;3.11;81.92;99503.48;3062062;77;21129;-67
2021/01/26 04:44:11;;;;;;;33.25;20.02;;;;;;;3.06;81.83;99494.59;3019058;77;21126;-66
2021/01/26 04:48:38;;;;;;;32.67;22.02;;;;;;;3.04;81.53;99495.63;3057556;77;21066;-66
2021/01/26 04:53:14;;;;;;;33.80;24.15;;;;;;;2.93;81.61;99503.70;3038394;77;21131;-65
2021/01/26 04:57:39;;;;;;;39.30;20.15;;;;;;;2.88;82.11;99508.89;3004734;78;21573;-65
2021/01/26 05:02:04;;;;;;;33.00;21.95;;;;;;;2.76;82.17;99514.44;3010809;78;21106;-65
2021/01/26 05:06:11;;;;;;;37.03;24.02;;;;;;;2.76;82.35;99522.32;2994159;79;21133;-65
2021/01/26 05:10:25;;;;;;;37.00;23.98;;;;;;;2.76;82.50;99519.69;3002361;78;21119;-66
2021/01/26 05:14:33;;;;;;;27.00;19.67;;;;;;;2.79;82.38;99520.81;3004524;78;21141;-65
2021/01/26 05:18:44;;;;;;;39.92;22.82;;;;;;;2.72;82.08;99513.77;2990685;78;21149;-65
2021/01/26 05:22:57;;;;;;;38.75;23.50;;;;;;;2.78;82.24;99516.02;2988593;79;21128;-65
2021/01/26 05:27:02;;;;;;;38.98;24.18;;;;;;;2.80;82.30;99519.38;2977073;78;21133;-67
2021/01/26 05:31:12;;;;;;;33.35;23.35;;;;;;;2.83;82.22;99527.56;2994175;78;21149;-66
2021/01/26 05:35:17;;;;;;;34.73;20.62;;;;;;;2.88;82.07;99532.53;2992023;78;21114;-67
2021/01/26 05:39:51;;;;;;;33.87;24.60;;;;;;;2.84;82.46;99541.89;2994036;79;21153;-66
2021/01/26 05:43:57;;;;;;;34.48;24.35;;;;;;;2.83;82.86;99543.31;2980523;78;21074;-67
2021/01/26 05:48:08;;;;;;;37.13;21.45;;;;;;;2.68;83.73;99538.55;3018661;78;21126;-66
2021/01/26 05:52:12;;;;;;;30.95;20.10;;;;;;;2.65;84.14;99546.13;3001480;78;21138;-66
2021/01/26 05:56:18;;;;;;;25.82;20.30;;;;;;;2.62;83.92;99539.76;3021943;78;21134;-65
2021/01/26 06:00:28;;;;;;;28.57;19.95;;;;;;;2.66;83.79;99540.42;3021609;78;21165;-66
2021/01/26 06:04:34;;;;;;;36.00;21.30;;;;;;;2.66;83.68;99541.73;3021663;78;21087;-64
2021/01/26 06:08:56;;;;;;;27.58;19.15;;;;;;;2.66;83.43;99541.73;3021708;78;21111;-65
2021/01/26 06:12:59;;;;;;;28.70;19.20;;;;;;;2.70;83.29;99545.86;3021535;78;21131;-65
2021/01/26 06:17:25;;;;;;;30.43;20.88;;;;;;;2.69;83.36;99554.67;3021559;78;21094;-64
2021/01/26 06:21:32;;;;;;;36.10;20.75;;;;;;;2.71;83.49;99552.31;3021062;78;21142;-66
2021/01/26 06:25:36;;;;;;;29.27;19.47;;;;;;;2.69;83.36;99555.98;3001481;78;21149;-66
2021/01/26 06:29:55;;;;;;;27.13;18.00;;;;;;;2.63;83.65;99559.83;3021074;78;22019;-65
2021/01/26 06:34:23;;;;;;;31.35;18.02;;;;;;;2.60;84.09;99561.33;3021755;78;21130;-66
2021/01/26 06:38:57;;;;;;;26.48;16.48;;;;;;;2.54;84.39;99572.18;3023184;78;21150;-64
2021/01/26 06:43:41;;;;;;;31.70;19.55;;;;;;;2.45;84.77;99583.24;3021402;78;21150;-66
2021/01/26 06:48:19;;;;;;;33.95;19.48;;;;;;;2.42;84.85;99582.95;3021422;78;21648;-66
2021/01/26 06:52:42;;;;;;;;;;;;;;;2.38;84.44;99582.30;3024250;78;21129;-64
2021/01/26 06:57:23;;;;;;;20.82;15.15;;;;;;;2.39;84.26;99586.61;3021532;78;20156;-66
2021/01/26 07:01:53;;;;;;;22.07;17.35;;;;;;;2.35;84.29;99596.89;3021200;78;21122;-66
2021/01/26 07:06:24;;;;;;;21.90;13.93;;;;;;;2.28;84.59;99592.95;3012447;78;21118;-66
2021/01/26 07:11:08;;;;;;;25.60;15.55;;;;;;;2.18;85.19;99595.75;3021487;78;21122;-66
2021/01/26 07:15:46;;;;;;;25.32;16.60;;;;;;;2.12;85.42;99600.39;3021390;78;21135;-64
2021/01/26 07:20:29;;;;;;;24.37;17.00;;;;;;;2.10;85.45;99594.39;3021622;78;21126;-65
2021/01/26 07:24:40;;;;;;;21.15;16.37;;;;;;;2.06;85.29;99606.45;3021575;78;21139;-67
2021/01/26 07:29:20;;;;;;;26.10;18.15;;;;;;;2.05;84.97;99610.88;3021524;78;21134;-65
2021/01/26 07:33:39;;;;;;;25.52;16.52;;;;;;;2.05;84.51;99604.77;3021366;78;21569;-64
2021/01/26 07:38:28;;;;;;;32.45;19.02;;;;;;;2.13;84.16;99616.52;3021663;78;21146;-65
2021/01/26 07:42:35;;;;;;;25.27;18.82;;;;;;;2.19;83.83;99621.06;3021456;78;21143;-64
2021/01/26 07:46:55;;;;;;;25.60;19.85;;;;;;;2.34;83.71;99620.14;3021402;78;21082;-67
2021/01/26 07:51:04;;;;;;;26.82;17.60;;;;;;;2.45;83.08;99626.56;3021467;78;21154;-64
2021/01/26 07:55:24;;;;;;;22.00;15.10;;;;;;;2.45;81.85;99620.00;3021589;78;22208;-65
2021/01/26 07:59:32;;;;;;;29.82;16.07;;;;;;;2.50;81.73;99627.13;3021759;78;21098;-65
2021/01/26 08:03:37;;;;;;;25.45;16.75;;;;;;;2.50;81.17;99629.30;3021528;78;21106;-65
2021/01/26 08:07:40;;;;;;;27.00;17.15;;;;;;;2.52;81.35;99636.61;3021540;78;21452;-65
2021/01/26 08:12:04;;;;;;;28.47;18.57;;;;;;;2.56;81.30;99632.86;3021265;78;21153;-63
2021/01/26 08:16:14;;;;;;;25.17;18.25;;;;;;;2.60;80.86;99633.98;3021728;78;21110;-65
2021/01/26 08:20:30;;;;;;;21.52;15.75;;;;;;;2.59;80.29;99630.54;3021221;78;21580;-65
2021/01/26 08:24:36;;;;;;;23.50;13.95;;;;;;;2.60;79.92;99642.73;3021668;78;21126;-66
2021/01/26 08:28:44;;;;;;;18.40;12.98;;;;;;;2.63;79.29;99646.94;3021234;78;21123;-66
2021/01/26 08:33:09;;;;;;;25.17;15.55;;;;;;;2.63;78.65;99639.92;3021078;78;21115;-64
2021/01/26 08:37:20;;;;;;;17.65;13.32;;;;;;;2.71;78.67;99636.35;3021466;78;21126;-66
2021/01/26 08:41:41;;;;;;;24.40;15.40;;;;;;;2.80;78.79;99638.08;3021457;78;21075;-65
2021/01/26 08:45:51;;;;;;;23.95;14.33;;;;;;;2.83;78.29;99637.40;3021500;78;21118;-66
2021/01/26 08:50:16;;;;;;;21.57;16.87;;;;;;;2.87;77.68;99642.49;2993889;78;29769;-65
2021/01/26 08:54:45;;;;;;;18.67;13.08;;;;;;;2.94;77.72;99644.63;3030352;78;21208;-64
2021/01/26 08:58:55;;;;;;;21.25;14.25;;;;;;;2.97;76.96;99641.84;3035519;78;21125;-64
2021/01/26 09:02:58;;;;;;;21.07;16.90;;;;;;;2.97;76.87;99653.67;3035309;78;21145;-66
2021/01/26 09:07:02;;;;;;;21.70;14.28;;;;;;;2.97;76.84;99660.69;3041839;78;21162;-64
2021/01/26 09:11:15;;;;;;;22.58;13.95;;;;;;;2.97;76.75;99660.23;3035650;78;21138;-65
2021/01/26 09:15:19;;;;;;;19.52;13.48;;;;;;;2.94;76.51;99661.70;3035333;78;21130;-63
2021/01/26 09:19:46;;;;;;;20.48;13.78;;;;;;;2.93;76.76;99670.53;3035645;78;21134;-62
2021/01/26 09:23:54;;;;;;;16.80;13.80;;;;;;;2.93;76.90;99660.02;3034785;78;21102;-64
2021/01/26 09:28:10;;;;;;;20.50;14.90;;;;;;;2.94;76.74;99655.14;3007706;77;21132;-65
2021/01/26 09:32:16;;;;;;;21.90;14.13;;;;;;;2.99;77.08;99666.24;3056911;77;21251;-65
2021/01/26 09:36:21;;;;;;;17.87;13.18;;;;;;;3.02;77.30;99674.88;2991907;79;21141;-64
2021/01/26 09:40:23;;;;;;;18.55;14.55;;;;;;;3.07;77.28;99669.72;3002743;79;21125;-64
2021/01/26 09:44:26;;;;;;;16.40;10.48;;;;;;;3.10;76.67;99674.79;3003134;77;21130;-64
2021/01/26 09:48:46;;;;;;;16.57;11.38;;;;;;;3.10;76.64;99669.98;3002993;79;21155;-65
2021/01/26 09:52:54;;;;;;;20.97;13.35;;;;;;;3.08;75.89;99680.61;3003215;79;21140;-65
2021/01/26 09:56:59;;;;;;;14.60;12.53;;;;;;;3.10;75.87;99675.24;3003105;79;21120;-64
2021/01/26 10:01:03;;;;;;;16.30;10.58;;;;;;;3.07;75.94;99681.55;3003104;79;21115;-64
2021/01/26 10:05:12;;;;;;;20.70;12.73;;;;;;;3.11;75.55;99688.76;3003408;78;21132;-63
2021/01/26 10:09:34;;;;;;;18.75;11.78;;;;;;;3.14;75.85;99690.74;3003271;79;21124;-66
2021/01/26 10:13:40;;;;;;;13.72;10.63;;;;;;;3.22;75.64;99694.22;3045725;77;21125;-64
2021/01/26 10:18:08;;;;;;;14.73;10.78;;;;;;;3.28;75.49;99699.58;3062283;77;21124;-65
2021/01/26 10:22:18;;;;;;;22.02;14.10;;;;;;;3.36;75.27;99696.48;3062605;77;21089;-64
2021/01/26 10:26:27;;;;;;;14.03;10.70;;;;;;;3.46;75.15;99697.59;3062627;77;21579;-65
2021/01/26 10:30:31;;;;;;;16.37;11.33;;;;;;;3.53;74.92;99689.69;3062126;77;21106;-65
2021/01/26 10:34:45;;;;;;;14.87;10.75;;;;;;;3.59;74.54;99684.53;3062725;77;21125;-65
2021/01/26 10:38:48;;;;;;;19.45;12.47;;;;;;;3.69;74.68;99684.80;3062658;77;21125;-64
2021/01/26 10:43:09;;;;;;;20.88;11.05;;;;;;;3.75;74.37;99682.25;3062604;77;21077;-65
2021/01/26 10:47:33;;;;;;;14.00;10.48;;;;;;;3.86;73.81;99676.68;3062304;77;21141;-64
2021/01/26 10:51:42;;;;;;;23.20;10.82;;;;;;;3.98;73.71;99682.11;3062630;77;21129;-64
2021/01/26 10:55:45;;;;;;;18.23;11.88;;;;;;;4.08;73.10;99679.25;3062607;77;21138;-65
2021/01/26 10:59:47;;;;;;;16.77;12.00;;;;;;;4.21;73.00;99681.09;3062322;77;21070;-66
2021/01/26 11:03:52;;;;;;;17.00;10.55;;;;;;;4.32;72.08;99677.77;3062849;77;21140;-64
2021/01/26 11:07:55;;;;;;;14.85;10.10;;;;;;;4.47;72.39;99668.86;3062680;77;21129;-66
2021/01/26 11:11:58;;;;;;;15.45;10.50;;;;;;;4.73;70.95;99668.89;3062368;77;21117;-67
2021/01/26 11:16:01;;;;;;;12.15;8.40;;;;;;;4.85;71.17;99669.85;3062928;77;21097;-64
2021/01/26 11:20:08;;;;;;;20.48;10.80;;;;;;;4.90;70.25;99666.42;3062249;77;21149;-66
2021/01/26 11:24:11;;;;;;;20.52;10.13;;;;;;;4.90;70.14;99659.83;3062336;77;21139;-65
2021/01/26 11:28:14;;;;;;;14.90;9.70;;;;;;;4.96;70.13;99664.70;3062374;77;21125;-65
2021/01/26 11:32:18;;;;;;;9.90;8.70;;;;;;;4.86;69.31;99661.85;3062516;77;21156;-67
2021/01/26 11:36:22;;;;;;;12.55;9.03;;;;;;;4.85;69.94;99655.36;3062738;77;21125;-65
2021/01/26 11:40:25;;;;;;;19.25;9.85;;;;;;;4.83;70.57;99648.89;3062557;77;21117;-64
2021/01/26 11:44:29;;;;;;;17.85;9.13;;;;;;;4.82;69.51;99655.57;3062431;77;21138;-67
2021/01/26 11:48:33;;;;;;;11.35;8.18;;;;;;;4.81;69.02;99663.11;3062630;77;21129;-65
2021/01/26 11:52:38;;;;;;;11.05;8.30;;;;;;;4.79;68.93;99653.97;3061870;77;21105;-66
2021/01/26 11:56:42;;;;;;;14.95;8.03;;;;;;;4.76;69.03;99656.83;2986987;79;21130;-65
2021/01/26 12:00:44;;;;;;;12.60;7.72;;;;;;;4.80;68.58;99660.11;2987294;79;21145;-65
2021/01/26 12:04:47;;;;;;;17.42;10.23;;;;;;;4.77;67.29;99648.46;2987426;79;21127;-67
2021/01/26 12:08:50;;;;;;;12.23;9.60;;;;;;;4.81;69.45;99645.98;2987229;79;21157;-65
2021/01/26 12:12:54;;;;;;;16.73;9.25;;;;;;;4.90;69.15;99647.14;2987147;79;21118;-65
2021/01/26 12:16:57;;;;;;;11.43;8.65;;;;;;;4.89;69.45;99641.50;2987367;79;21118;-65
2021/01/26 12:21:00;;;;;;;14.07;8.85;;;;;;;4.70;69.72;99642.27;2987088;79;21164;-65
2021/01/26 12:25:06;;;;;;;16.17;9.60;;;;;;;4.66;70.65;99643.43;2987184;79;21134;-64
2021/01/26 12:29:10;;;;;;;13.33;8.07;;;;;;;4.69;70.61;99650.30;2987478;79;21125;-65
2021/01/26 12:33:15;;;;;;;15.58;10.13;;;;;;;4.76;70.87;99653.36;2987348;79;21114;-65
2021/01/26 12:37:19;;;;;;;13.72;8.48;;;;;;;4.80;71.22;99658.79;2987193;79;21158;-64
2021/01/26 12:41:22;;;;;;;10.98;8.00;;;;;;;4.72;70.81;99659.30;2987217;79;21185;-65
2021/01/26 12:45:28;;;;;;;13.25;9.75;;;;;;;4.64;70.51;99659.81;2987335;79;21090;-64
2021/01/26 12:49:32;;;;;;;12.03;8.05;;;;;;;4.64;71.33;99653.23;2987027;79;21165;-64
2021/01/26 12:53:35;;;;;;;12.78;8.08;;;;;;;4.64;70.51;99650.59;2988776;79;21185;-66
2021/01/26 12:57:38;;;;;;;9.23;7.33;;;;;;;4.65;71.09;99664.63;2995554;79;21149;-66
2021/01/26 13:01:43;;;;;;;7.22;5.75;;;;;;;4.63;70.79;99673.94;2995479;79;21113;-68
2021/01/26 13:05:47;;;;;;;10.98;8.45;;;;;;;4.65;70.79;99674.67;2995600;79;21114;-65
2021/01/26 13:09:50;;;;;;;22.00;10.68;;;;;;;4.55;71.40;99673.62;2995449;79;21118;-65
2021/01/26 13:13:53;;;;;;;10.05;7.47;;;;;;;4.43;71.81;99677.42;2995649;79;21137;-63
2021/01/26 13:17:56;;;;;;;11.38;7.60;;;;;;;4.40;72.07;99671.50;2993965;79;21157;-65
2021/01/26 13:22:00;;;;;;;14.60;8.05;;;;;;;4.46;72.04;99679.48;2994862;79;21114;-64
2021/01/26 13:26:03;;;;;;;11.78;6.20;;;;;;;4.47;71.18;99671.95;2995835;79;21109;-65
2021/01/26 13:30:10;;;;;;;10.65;5.65;;;;;;;4.26;70.96;99682.95;2995238;79;21125;-65
2021/01/26 13:34:12;;;;;;;;;;;;;;;4.05;71.37;99682.08;2997788;79;21571;-66
2021/01/26 13:38:15;;;;;;;11.18;7.70;;;;;;;4.03;70.95;99675.22;2994690;79;20177;-66
2021/01/26 13:42:18;;;;;;;12.18;8.60;;;;;;;3.93;71.97;99685.48;2969843;79;21142;-66
2021/01/26 13:46:21;;;;;;;8.58;7.58;;;;;;;3.91;72.81;99689.55;2969634;79;21122;-66
2021/01/26 13:50:30;;;;;;;11.15;7.47;;;;;;;3.93;73.03;99689.44;2982501;79;21134;-66
2021/01/26 13:54:33;;;;;;;13.75;11.63;;;;;;;3.86;72.69;99685.06;3009451;77;21125;-67
2021/01/26 13:58:36;;;;;;;20.32;10.95;;;;;;;3.79;73.28;99703.02;3058153;77;21137;-65
2021/01/26 14:02:40;;;;;;;18.37;11.18;;;;;;;3.75;73.72;99697.58;2992340;79;21114;-66
2021/01/26 14:06:43;;;;;;;12.37;10.47;;;;;;;3.67;74.17;99698.06;2993417;79;21133;-69
2021/01/26 14:10:47;;;;;;;18.85;12.45;;;;;;;3.62;73.90;99696.16;2993686;79;21157;-66
2021/01/26 14:14:50;;;;;;;17.57;14.53;;;;;;;3.63;74.21;99705.74;2993258;79;21094;-65
2021/01/26 14:18:53;;;;;;;22.67;14.23;;;;;;;3.62;74.01;99701.91;2991212;79;21150;-66
2021/01/26 14:22:56;;;;;;;12.00;10.00;;;;;;;3.68;74.42;99697.12;2993234;79;21110;-65
2021/01/26 14:26:59;;;;;;;9.55;6.80;;;;;;;3.80;73.30;99698.13;2981482;79;21101;-66
2021/01/26 14:31:03;;;;;;;11.88;7.00;;;;;;;3.92;72.69;99710.98;2954466;79;21109;-66
2021/01/26 14:35:08;;;;;;;12.82;8.88;;;;;;;3.96;72.24;99715.59;2948968;80;21107;-67
2021/01/26 14:39:11;;;;;;;13.97;10.33;;;;;;;4.02;72.27;99709.92;2941929;81;21116;-70
2021/01/26 14:43:14;;;;;;;9.23;7.67;;;;;;;4.05;71.33;99711.03;2993479;79;21129;-67
2021/01/26 14:47:18;;;;;;;10.93;7.05;;;;;;;4.05;71.45;99717.62;2940812;81;21060;-66
2021/01/26 14:51:21;;;;;;;13.25;8.63;;;;;;;4.10;71.40;99715.52;2976731;79;21110;-67
2021/01/26 14:55:26;;;;;;;10.05;7.78;;;;;;;4.09;71.34;99719.10;2940431;80;21612;-67
2021/01/26 14:59:29;;;;;;;15.83;7.83;;;;;;;4.06;71.40;99715.36;2954026;79;21094;-68
2021/01/26 15:03:33;;;;;;;18.85;10.20;;;;;;;4.03;71.69;99726.08;3037608;78;21086;-66
2021/01/26 15:07:36;;;;;;;13.85;10.40;;;;;;;3.98;72.48;99732.12;3037778;78;21097;-64
2021/01/26 15:11:39;;;;;;;12.50;8.25;;;;;;;3.86;72.98;99742.47;3038045;78;21101;-65
2021/01/26 15:15:43;;;;;;;10.82;9.05;;;;;;;3.79;73.10;99739.85;3038003;78;21090;-65
2021/01/26 15:19:46;;;;;;;14.05;9.45;;;;;;;3.78;72.96;99746.05;3038133;78;21106;-66
2021/01/26 15:23:49;;;;;;;11.75;8.50;;;;;;;3.71;72.83;99748.67;3037973;78;21185;-65
2021/01/26 15:27:52;;;;;;;9.15;6.78;;;;;;;3.64;72.57;99748.23;3037888;78;21126;-64
2021/01/26 15:31:56;;;;;;;13.65;8.25;;;;;;;3.53;72.12;99739.66;3037992;78;21086;-66
2021/01/26 15:35:59;;;;;;;14.18;10.40;;;;;;;3.43;72.17;99753.01;3037990;78;21082;-66
2021/01/26 15:40:05;;;;;;;13.03;9.68;;;;;;;3.27;72.63;99756.55;3038242;78;21086;-65
2021/01/26 15:44:08;;;;;;;19.00;12.07;;;;;;;3.13;73.04;99764.41;3038457;78;21092;-66
2021/01/26 15:48:11;;;;;;;14.15;10.70;;;;;;;2.99;73.35;99767.41;3037951;78;21099;-64
2021/01/26 15:52:14;;;;;;;16.27;10.98;;;;;;;2.85;73.78;99760.78;3037790;78;21102;-65
2021/01/26 15:56:17;;;;;;;16.42;11.45;;;;;;;2.76;74.03;99763.48;3040613;78;21098;-65
2021/01/26 16:00:21;;;;;;;16.60;11.60;;;;;;;2.68;74.36;99774.91;3042235;78;21106;-66
2021/01/26 16:04:24;;;;;;;13.80;10.13;;;;;;;2.63;74.63;99779.10;3042134;78;21508;-65
2021/01/26 16:08:27;;;;;;;15.85;11.70;;;;;;;2.57;74.89;99775.52;3042454;78;21055;-66
2021/01/26 16:12:30;;;;;;;19.73;12.60;;;;;;;2.54;75.34;99779.61;3042247;78;21096;-65
2021/01/26 16:16:33;;;;;;;16.95;12.82;;;;;;;2.52;75.63;99781.02;3042397;78;21050;-64
2021/01/26 16:20:37;;;;;;;18.37;13.58;;;;;;;2.46;76.29;99789.25;3042462;78;21078;-65
2021/01/26 16:24:40;;;;;;;24.55;14.30;;;;;;;2.41;76.68;99792.12;3041988;78;21093;-66
2021/01/26 16:28:44;;;;;;;15.78;12.60;;;;;;;2.41;76.97;99796.06;3042222;78;21090;-65
2021/01/26 16:32:47;;;;;;;25.80;14.50;;;;;;;2.38;77.20;99802.81;3042272;78;21097;-65
2021/01/26 16:36:51;;;;;;;22.70;15.48;;;;;;;2.35;77.51;99804.27;3042292;78;21082;-65
2021/01/26 16:40:56;;;;;;;29.18;15.60;;;;;;;2.33;77.66;99811.86;3042116;78;21122;-66
2021/01/26 16:44:59;;;;;;;32.60;19.85;;;;;;;2.32;77.74;99812.31;3042247;78;21113;-66
2021/01/26 16:49:02;;;;;;;30.08;17.52;;;;;;;2.30;77.99;99816.80;3042326;78;21075;-65
2021/01/26 16:53:05;;;;;;;27.93;17.80;;;;;;;2.26;78.26;99817.91;3042455;78;21140;-65
2021/01/26 16:57:08;;;;;;;35.92;23.07;;;;;;;2.25;78.35;99828.02;3042397;78;21090;-66
2021/01/26 17:01:11;;;;;;;26.05;19.37;;;;;;;2.25;78.46;99821.47;3042887;78;21074;-66
2021/01/26 17:05:14;;;;;;;29.18;18.42;;;;;;;2.25;78.53;99813.59;3042641;78;21072;-66
2021/01/26 17:09:17;;;;;;;32.23;22.77;;;;;;;2.26;78.64;99829.72;3042752;78;21070;-66
2021/01/26 17:13:20;;;;;;;33.00;21.20;;;;;;;2.24;78.80;99840.77;3042823;78;21074;-65
2021/01/26 17:17:30;;;;;;;32.55;17.67;;;;;;;2.20;79.00;99841.39;3042631;78;21081;-66
2021/01/26 17:21:35;;;;;;;26.80;16.35;;;;;;;2.17;79.31;99848.13;3034013;78;21582;-66
2021/01/26 17:25:42;;;;;;;30.97;19.20;;;;;;;2.22;79.25;99855.75;3037908;78;21063;-66
2021/01/26 17:29:45;;;;;;;43.05;24.23;;;;;;;2.23;79.36;99854.34;3037187;78;21098;-66
2021/01/26 17:33:50;;;;;;;40.25;21.23;;;;;;;2.30;79.29;99853.55;3016816;78;21091;-66
2021/01/26 17:37:52;;;;;;;40.10;23.07;;;;;;;2.30;79.12;99852.23;3037563;77;21082;-66
2021/01/26 17:42:02;;;;;;;35.60;22.17;;;;;;;2.32;79.27;99850.86;3037917;78;21145;-66
2021/01/26 17:46:01;;;;;;;30.63;21.47;;;;;;;2.37;79.32;99850.99;3037750;78;21062;-66
2021/01/26 17:50:06;;;;;;;30.75;19.90;;;;;;;2.45;79.50;99853.65;3037932;78;21074;-66
2021/01/26 17:54:11;;;;;;;29.27;19.17;;;;;;;2.52;79.50;99854.55;3037794;78;21551;-66
2021/01/26 17:58:15;;;;;;;25.90;19.63;;;;;;;2.55;79.29;99864.87;3040536;78;21066;-66
2021/01/26 18:02:18;;;;;;;24.70;16.35;;;;;;;2.60;79.07;99862.00;3038106;78;21110;-65
2021/01/26 18:06:21;;;;;;;27.05;17.62;;;;;;;2.59;78.98;99866.88;3037641;78;21114;-66
2021/01/26 18:10:28;;;;;;;22.60;17.77;;;;;;;2.61;78.89;99858.44;3037741;78;21130;-66
2021/01/26 18:14:33;;;;;;;24.05;16.65;;;;;;;2.60;78.84;99852.81;3038269;78;21110;-66
2021/01/26 18:18:36;;;;;;;34.80;19.73;;;;;;;2.59;78.92;99856.37;3038302;78;21114;-67
2021/01/26 18:22:39;;;;;;;24.82;18.25;;;;;;;2.55;79.04;99845.62;3038278;78;21082;-66
2021/01/26 18:26:43;;;;;;;27.75;21.07;;;;;;;2.54;79.05;99855.75;3037939;78;21085;-66
2021/01/26 18:30:49;;;;;;;26.68;16.17;;;;;;;2.53;79.02;99858.86;3038027;78;21071;-66
2021/01/26 18:34:52;;;;;;;24.67;19.00;;;;;;;2.50;79.15;99855.55;3035303;77;21082;-64
2021/01/26 18:38:55;;;;;;;26.80;19.17;;;;;;;2.53;79.19;99864.56;2940833;79;21099;-64
2021/01/26 18:42:58;;;;;;;30.27;20.12;;;;;;;2.62;79.25;99869.78;2993980;79;21054;-64
2021/01/26 18:47:02;;;;;;;27.77;19.07;;;;;;;2.72;79.14;99874.91;2979247;79;21102;-64
2021/01/26 18:51:06;;;;;;;28.15;16.70;;;;;;;2.76;78.79;99866.41;3069523;77;21177;-63
2021/01/26 18:55:11;;;;;;;30.90;19.35;;;;;;;2.80;78.56;99862.66;3067093;77;21085;-64
2021/01/26 18:59:14;;;;;;;29.27;19.45;;;;;;;2.79;78.36;99862.28;3050892;78;21090;-62
2021/01/26 19:03:17;;;;;;;33.40;20.20;;;;;;;2.79;78.37;99866.23;3045648;77;21134;-63
2021/01/26 19:07:20;;;;;;;25.55;19.25;;;;;;;2.80;78.59;99877.11;3028434;78;21529;-64
2021/01/26 19:11:25;;;;;;;21.40;17.57;;;;;;;2.84;78.56;99873.38;3013404;78;21071;-63
2021/01/26 19:15:32;;;;;;;28.95;18.15;;;;;;;2.88;78.50;99872.26;3003387;78;21106;-63
2021/01/26 19:19:35;;;;;;;22.60;17.25;;;;;;;2.92;78.39;99873.77;2996064;78;21086;-62
2021/01/26 19:23:41;;;;;;;22.87;15.18;;;;;;;2.94;78.42;99871.08;2996196;78;21086;-63